Flight Track Log - Related Links

Times and Time Zones

All times are in EDT time to prevent confusion due to time zone crossing. See the ASQ2524 flight status page for this flight to view local times or setup timezone preferences in your user account.

Time Position Orientation Groundspeed Altitude Reporting Facility
EDT Latitude Longitude Course Direction KTS MPH feet Rate Location/Type
Mon 07:57:00 PM 27.2164 -97.4333 North  Level FlightAware Approximate
Mon 07:58:00 PM 27.2836 -97.4333 North  Level FlightAware Approximate
Mon 07:59:00 PM 27.3507 -97.4333 360° North  Level FlightAware Approximate
Mon 08:00:00 PM 27.4179 -97.4333 North  Level FlightAware Approximate
Mon 08:01:00 PM 27.4850 -97.4333 360° North  Level FlightAware Approximate
Mon 08:02:00 PM 27.5522 -97.4333 360° North  Level FlightAware Approximate
Mon 08:03:00 PM 27.6193 -97.4333 North  Level FlightAware Approximate
Mon 08:04:00 PM 27.6864 -97.4333 360° North  Level FlightAware Approximate
Mon 08:05:00 PM 27.7536 -97.4333 North  Level FlightAware Approximate
Mon 08:06:00 PM 27.8207 -97.4333 360° North  Level FlightAware Approximate
Mon 08:07:00 PM 27.8879 -97.4333 North  Level FlightAware Approximate
Mon 08:08:00 PM 27.9491 -97.4613 333° Northwest  Level FlightAware Approximate
Mon 08:09:00 PM 28.0091 -97.4956 333° Northwest  Level FlightAware Approximate
Mon 08:10:00 PM 28.0690 -97.5298 333° Northwest  Level FlightAware Approximate
Mon 08:11:00 PM 28.1290 -97.5642 333° Northwest  Level FlightAware Approximate
Mon 08:12:00 PM 28.1881 -97.6002 332° Northwest  Level FlightAware Approximate
Mon 08:13:00 PM 28.2472 -97.6365 332° Northwest  Level FlightAware Approximate
Mon 08:14:00 PM 28.3062 -97.6728 332° Northwest  Level FlightAware Approximate
Mon 08:15:00 PM 28.3652 -97.7091 332° Northwest  Level FlightAware Approximate
Mon 08:16:00 PM 28.4243 -97.7454 332° Northwest  Level FlightAware Approximate
Mon 08:17:00 PM 28.4833 -97.7818 332° Northwest  Level FlightAware Approximate
Mon 08:18:00 PM 28.5423 -97.8183 332° Northwest  Level FlightAware Approximate
Mon 08:19:00 PM 28.6019 -97.8536 333° Northwest  Level FlightAware Approximate
Mon 08:20:00 PM 28.6618 -97.8880 333° Northwest  Level FlightAware Approximate
Mon 08:21:00 PM 28.7218 -97.9225 333° Northwest  Level FlightAware Approximate
Mon 08:22:00 PM 28.7817 -97.9571 333° Northwest  Level FlightAware Approximate
Mon 08:23:00 PM 28.8416 -97.9917 333° Northwest  Level FlightAware Approximate
Mon 08:24:00 PM 28.9015 -98.0263 333° Northwest  Level FlightAware Approximate
Mon 08:25:00 PM 28.9614 -98.0610 333° Northwest  Level FlightAware Approximate
Mon 08:26:00 PM 29.0213 -98.0956 333° Northwest  Level FlightAware Approximate
Mon 08:27:00 PM 29.0812 -98.1302 333° Northwest  Level FlightAware Approximate
Mon 08:28:00 PM 29.1412 -98.1649 333° Northwest  Level FlightAware Approximate
Mon 08:29:00 PM 29.2011 -98.1996 333° Northwest  Level FlightAware Approximate
Mon 08:30:00 PM 29.2610 -98.2343 333° Northwest  Level FlightAware Approximate
Mon 08:31:00 PM 29.3209 -98.2691 333° Northwest  Level FlightAware Approximate
Mon 08:32:00 PM 29.3809 -98.3037 333° Northwest  Level FlightAware Approximate
Mon 08:33:00 PM 29.4408 -98.3384 333° Northwest  Level FlightAware Approximate
Mon 08:34:00 PM 29.5008 -98.3731 333° Northwest  Level FlightAware Approximate
Mon 08:35:00 PM 29.5608 -98.4079 333° Northwest  Level FlightAware Approximate
Mon 08:36:00 PM 29.6207 -98.4427 333° Northwest  Level FlightAware Approximate
Mon 08:37:00 PM 29.6861 -98.4442 North  Level FlightAware Approximate
Mon 08:38:00 PM 29.7529 -98.4367 North  Level FlightAware Approximate
Mon 08:39:00 PM 29.8197 -98.4293 North  Level FlightAware Approximate
Mon 08:40:00 PM 29.8866 -98.4219 North  Level FlightAware Approximate
Mon 08:41:00 PM 29.9532 -98.4127 10° North  Level FlightAware Approximate
Mon 08:42:00 PM 30.0194 -98.3995 10° North  Level FlightAware Approximate
Mon 08:43:00 PM 30.0855 -98.3862 10° North  Level FlightAware Approximate
Mon 08:44:00 PM 30.1519 -98.3747 North  Level FlightAware Approximate
Mon 08:45:00 PM 30.2184 -98.3636 North  Level FlightAware Approximate
Mon 08:46:00 PM 30.2848 -98.3526 North  Level FlightAware Approximate
Mon 08:47:00 PM 30.3513 -98.3415 North  Level FlightAware Approximate
Mon 08:48:00 PM 30.4178 -98.3310 North  Level FlightAware Approximate
Mon 08:49:00 PM 30.4845 -98.3223 North  Level FlightAware Approximate
Mon 08:50:00 PM 30.5512 -98.3135 North  Level FlightAware Approximate
Mon 08:51:00 PM 30.6180 -98.3047 North  Level FlightAware Approximate
Mon 08:52:00 PM 30.6847 -98.2960 North  Level FlightAware Approximate
Mon 08:53:00 PM 30.7514 -98.2872 North  Level FlightAware Approximate
Mon 08:54:00 PM 30.8181 -98.2784 North  Level FlightAware Approximate
Mon 08:55:00 PM 30.8848 -98.2696 North  Level FlightAware Approximate
Mon 08:56:00 PM 30.9515 -98.2607 North  Level FlightAware Approximate
Mon 08:57:00 PM 31.0182 -98.2519 North  Level FlightAware Approximate
Mon 08:58:00 PM 31.0850 -98.2430 North  Level FlightAware Approximate
Mon 08:59:00 PM 31.1517 -98.2342 North  Level FlightAware Approximate
Mon 09:00:00 PM 31.2184 -98.2253 North  Level FlightAware Approximate
Mon 09:01:00 PM 31.2851 -98.2162 12° North  Level FlightAware Approximate
Mon 09:02:00 PM 31.3507 -98.2000 North  Level FlightAware Approximate
Mon 09:03:00 PM 31.4166 -98.1889 16° North  Level FlightAware Approximate
Mon 09:04:00 PM 31.4825 -98.1751 North  Level FlightAware Approximate
Mon 09:05:00 PM 31.5479 -98.1594 23° Northeast  Level FlightAware Approximate
Mon 09:06:00 PM 31.6097 -98.1285 23° Northeast  Level FlightAware Approximate
Mon 09:07:00 PM 31.6715 -98.0976 23° Northeast  Level FlightAware Approximate
Mon 09:08:00 PM 31.7339 -98.0688 20° North  Level FlightAware Approximate
Mon 09:09:00 PM 31.7970 -98.0418 20° North  Level FlightAware Approximate
Mon 09:10:00 PM 31.8592 -98.0121 23° Northeast  Level FlightAware Approximate
Mon 09:11:00 PM 31.9208 -97.9806 29° Northeast  Level FlightAware Approximate
Mon 09:12:00 PM 31.9803 -97.9445 19° North  Level FlightAware Approximate
Mon 09:12:00 PM 25.8994 -97.4178 48° Northeast 144 166 400  Level Houston Center
Mon 09:12:43 PM 25.9097 -97.3953 63° Northeast 159 183 1,900 2,155 Climbing Houston Center
Mon 09:13:00 PM 32.0439 -97.9191 19° North  Level FlightAware Approximate
Mon 09:13:43 PM 25.9767 -97.3911 North 271 312 4,100  Level Houston Center
Mon 09:14:00 PM 32.1059 -97.8887 23° Northeast  Level FlightAware Approximate
Mon 09:14:44 PM 26.0525 -97.3922 359° North 288 331 6,900  Level Houston Center
Mon 09:15:00 PM 32.1637 -97.8507 45° Northeast  Level FlightAware Approximate
Mon 09:15:45 PM 26.1411 -97.3942 359° North 294 338 9,700  Level Houston Center
Mon 09:16:00 PM 32.2115 -97.7950 45° Northeast  Level FlightAware Approximate
Mon 09:17:00 PM 32.2587 -97.7385 48° Northeast  Level FlightAware Approximate
Mon 09:17:13 PM 26.2758 -97.3975 359° North 337 388 11,900  Level Houston Center
Mon 09:18:15 PM 26.3803 -97.4003 359° North 370 426 13,200 1,268 Climbing Houston Center
Mon 09:19:16 PM 26.4886 -97.4036 358° North 386 444 14,500 1,317 Climbing Houston Center
Mon 09:20:18 PM 26.6097 -97.4069 359° North 400 460 15,900 1,268 Climbing Houston Center
Mon 09:21:19 PM 26.7211 -97.4103 358° North 402 463 17,100 1,073 Climbing Houston Center
Mon 09:22:21 PM 26.8358 -97.4133 359° North 410 472 18,100 976 Climbing Houston Center
Mon 09:23:22 PM 26.9594 -97.4164 359° North 413 475 19,100 885 Climbing Houston Center
Mon 09:24:23 PM 27.0742 -97.4197 359° North 411 473 19,900 683 Climbing Houston Center
Mon 09:25:25 PM 27.1819 -97.4228 359° North 409 471 20,500 634 Climbing Houston Center
Mon 09:26:26 PM 27.2986 -97.4264 358° North 416 479 21,200 683 Climbing Houston Center
Mon 09:27:28 PM 27.4158 -97.4303 358° North 420 483 21,900 878 Climbing Houston Center
Mon 09:28:29 PM 27.5333 -97.4328 359° North 422 486 23,000 1,131 Climbing Houston Center
Mon 09:29:30 PM 27.6656 -97.4550 352° North 406 467 24,200 829 Climbing Houston Center
Mon 09:30:32 PM 27.7725 -97.5072 337° Northwest 415 478 24,700 488 Climbing Houston Center
Mon 09:31:33 PM 27.8817 -97.5606 337° Northwest 423 487 25,200 492 Climbing Houston Center
Mon 09:32:34 PM 27.9983 -97.6189 336° Northwest 434 499 25,700 488 Climbing Houston Center
Mon 09:33:36 PM 28.1094 -97.6747 336° Northwest 435 501 26,200 488 Climbing Houston Center
Mon 09:34:37 PM 28.2200 -97.7308 336° Northwest 436 502 26,700 492 Climbing Houston Center
Mon 09:35:38 PM 28.3303 -97.7856 336° Northwest 433 498 27,200 492 Climbing Houston Center
Mon 09:36:39 PM 28.4425 -97.8431 336° Northwest 438 504 27,700 488 Climbing Houston Center
Mon 09:37:41 PM 28.5525 -97.8983 336° Northwest 432 497 28,200 488 Climbing Houston Center
Mon 09:38:42 PM 28.6631 -97.9539 336° Northwest 433 498 28,700 393 Climbing Houston Center
Mon 09:39:43 PM 28.7722 -98.0106 336° Northwest 429 494 29,000 148 Climbing Houston Center
Mon 09:40:44 PM 28.8831 -98.0664 336° Northwest 432 497 29,000  Level Houston Center
Mon 09:41:46 PM 29.0150 -98.1353 335° Northwest 441 507 29,000  Level Houston Center
Mon 09:42:47 PM 29.1269 -98.1922 336° Northwest 441 507 29,000  Level Houston Center
Mon 09:43:48 PM 29.2469 -98.2544 336° Northwest 440 506 29,000  Level Houston Center
Mon 09:44:50 PM 29.3592 -98.3119 336° Northwest 441 507 29,000  Level Houston Center
Mon 09:45:51 PM 29.4786 -98.3375 349° North 450 518 29,000  Level Houston Center
Mon 09:46:52 PM 29.6142 -98.3269 North 459 528 29,000  Level Houston Center
Mon 09:47:53 PM 29.7392 -98.3197 North 454 522 29,000  Level Houston Center
Mon 09:48:54 PM 29.8647 -98.3097 North 455 524 29,000  Level Houston Center
Mon 09:49:55 PM 30.0003 -98.2989 North 454 522 29,000  Level Houston Center
Mon 09:50:56 PM 30.1247 -98.2897 North 448 516 29,000  Level Houston Center
Mon 09:51:58 PM 30.2486 -98.2803 North 446 513 29,000  Level Houston Center
Mon 09:52:59 PM 30.3653 -98.2708 North 448 516 29,000  Level Houston Center
Mon 09:54:00 PM 30.4900 -98.2622 North 444 511 29,000  Level Houston Center
Mon 09:55:01 PM 30.6161 -98.2525 North 446 513 29,000  Level Houston Center
Mon 09:56:02 PM 30.7422 -98.2422 North 447 514 29,000  Level Houston Center
Mon 09:57:03 PM 30.8706 -98.2331 North 451 519 29,000  Level Houston Center
Mon 09:58:04 PM 30.9967 -98.2231 North 449 517 29,000  Level Houston Center
Mon 09:59:03 PM 31.1333 -98.2142 North 444 511 29,000  Level Fort Worth Center
Mon 10:00:03 PM 31.2547 -98.1714 17° North 443 510 29,000  Level Fort Worth Center
Mon 10:01:03 PM 31.3700 -98.1067 26° Northeast 450 518 29,000  Level Fort Worth Center
Mon 10:02:03 PM 31.4872 -98.0444 24° Northeast 456 525 29,000 -50 Level Fort Worth Center
Mon 10:03:03 PM 31.6067 -97.9792 25° Northeast 462 532 28,900 -1,300 Descending Fort Worth Center
Mon 10:04:03 PM 31.7258 -97.9117 26° Northeast 462 532 26,400 -2,800 Descending Fort Worth Center
Mon 10:05:03 PM 31.8514 -97.8464 24° Northeast 471 542 23,300 -3,050 Descending Fort Worth Center
Mon 10:06:03 PM 31.9706 -97.7808 25° Northeast 471 542 20,300 -2,800 Descending Fort Worth Center
Mon 10:07:03 PM 32.0836 -97.7200 25° Northeast 455 524 17,700 -2,950 Descending Fort Worth Center
Mon 10:08:03 PM 32.1922 -97.6589 25° Northeast 441 507 14,400 -3,050 Descending Fort Worth Center
Mon 10:09:03 PM 32.2967 -97.6028 24° Northeast 421 484 11,600 -1,700 Descending Fort Worth Center
Mon 10:10:03 PM 32.3992 -97.5464 25° Northeast 399 459 11,000 -300 Descending Fort Worth Center
Mon 10:11:03 PM 32.4931 -97.4800 31° Northeast 399 459 11,000  Level Fort Worth Center
Mon 10:12:03 PM 32.5703 -97.3864 46° Northeast 392 451 11,000  Level Fort Worth Center
Mon 10:13:03 PM 32.6392 -97.3025 46° Northeast 387 445 11,000  Level Fort Worth Center
Mon 10:14:03 PM 32.7017 -97.2258 46° Northeast 320 368 11,000  Level Fort Worth Center
Mon 10:15:03 PM 32.7558 -97.1764 38° Northeast 270 311 11,000 -500 Level Fort Worth Center
Mon 10:16:03 PM 32.8372 -97.1686 North 251 289 10,000 -1,450 Descending Fort Worth Center
Mon 10:17:03 PM 32.9167 -97.1636 North 256 295 8,100 -1,800 Descending Fort Worth Center
Mon 10:18:03 PM 32.9833 -97.1533 North 269 310 6,400 -1,850 Descending Fort Worth Center
Mon 10:19:03 PM 33.0481 -97.1433 North 246 283 4,400 -1,925 Descending Fort Worth Center
Mon 10:19:49 PM 33.0667 -97.0833 70° East 213 245 3,000 -1,086 Descending Dallas / Fort Worth TRACON
Mon 10:20:48 PM 33.0167 -97.0500 151° Southeast 171 197 2,500 -579 Descending Dallas / Fort Worth TRACON
Mon 10:21:43 PM 32.9833 -97.0500 180° South 152 175 1,900 -672 Descending Dallas / Fort Worth TRACON
Mon 10:23:02 PM 32.9333 -97.0500 180° South 138 159 1,000 -684 Descending Dallas / Fort Worth TRACON

Login

Don't have an account? Register now (free) for customized features, flight alerts, and more!